createdAt,value
2017-09-19T00:01:08.375Z,35.17
2017-09-19T00:03:37.856Z,32.97
2017-09-19T00:06:06.199Z,34.47
2017-09-19T00:08:34.495Z,33.37
2017-09-19T00:11:03.551Z,31.60
2017-09-19T00:13:31.924Z,32.30
2017-09-19T00:16:00.995Z,33.57
2017-09-19T00:18:30.650Z,35.00
2017-09-19T00:20:58.871Z,35.70
2017-09-19T00:23:27.930Z,34.80
2017-09-19T00:25:56.242Z,34.90
2017-09-19T00:28:24.599Z,34.93
2017-09-19T00:30:52.895Z,36.47
2017-09-19T00:33:22.543Z,38.03
2017-09-19T00:35:51.156Z,37.57
2017-09-19T00:38:20.798Z,36.37
2017-09-19T00:40:48.963Z,37.37
2017-09-19T00:43:17.364Z,35.33
2017-09-19T00:45:46.077Z,35.67
2017-09-19T00:48:15.571Z,38.60
2017-09-19T00:50:44.334Z,34.87
2017-09-19T00:53:13.643Z,36.03
2017-09-19T00:55:41.984Z,37.37
2017-09-19T00:58:11.135Z,37.67
2017-09-19T01:00:39.824Z,36.10
2017-09-19T01:03:08.115Z,36.17
2017-09-19T01:05:37.956Z,37.00
2017-09-19T01:08:06.122Z,36.53
2017-09-19T01:10:34.414Z,38.50
2017-09-19T01:13:02.751Z,36.50
2017-09-19T01:15:31.046Z,37.40
2017-09-19T01:18:00.851Z,37.33
2017-09-19T01:20:29.986Z,37.83
2017-09-19T01:22:58.289Z,37.80
2017-09-19T01:25:26.987Z,39.00
2017-09-19T01:27:56.132Z,39.67
2017-09-19T01:30:24.430Z,39.23
2017-09-19T01:32:53.492Z,38.80
2017-09-19T01:35:22.608Z,36.40
2017-09-19T01:37:50.903Z,37.70
2017-09-19T01:40:19.971Z,37.13
2017-09-19T01:42:48.325Z,36.13
2017-09-19T01:45:16.653Z,37.80
2017-09-19T01:47:44.969Z,39.00
2017-09-19T01:50:14.488Z,40.17
2017-09-19T01:52:43.199Z,37.10
2017-09-19T01:55:11.535Z,37.50
2017-09-19T01:57:40.671Z,36.53
2017-09-19T02:00:08.971Z,36.03
2017-09-19T02:02:37.476Z,36.03
2017-09-19T02:05:05.932Z,34.27
2017-09-19T02:07:35.119Z,35.03
2017-09-19T02:10:03.802Z,36.23
2017-09-19T02:12:32.164Z,35.80
2017-09-19T02:15:00.463Z,37.30
2017-09-19T02:17:28.773Z,39.23
2017-09-19T02:19:57.114Z,37.60
2017-09-19T02:22:25.794Z,39.17
2017-09-19T02:24:54.086Z,39.20
2017-09-19T02:27:22.683Z,36.47
2017-09-19T02:29:52.106Z,38.47
2017-09-19T02:35:18.851Z,39.13
2017-09-19T02:38:04.767Z,38.93
2017-09-19T02:41:00.191Z,37.73
2017-09-19T02:43:30.283Z,38.83
2017-09-19T02:45:58.989Z,39.80
2017-09-19T02:48:27.348Z,38.87
2017-09-19T02:50:55.640Z,40.37
2017-09-19T02:53:41.782Z,38.40
2017-09-19T02:56:34.463Z,38.17
2017-09-19T02:59:26.904Z,41.67
2017-09-19T03:02:19.099Z,42.60
2017-09-19T03:04:53.751Z,43.37
2017-09-19T03:07:23.547Z,43.43
2017-09-19T03:09:52.602Z,41.80
2017-09-19T03:12:20.979Z,39.83
2017-09-19T03:14:50.030Z,41.43
2017-09-19T03:17:18.322Z,39.60
2017-09-19T03:19:47.459Z,40.47
2017-09-19T03:22:16.512Z,43.17
2017-09-19T03:24:44.817Z,40.40
2017-09-19T03:27:13.163Z,38.77
2017-09-19T03:29:41.461Z,39.07
2017-09-19T03:32:09.749Z,34.87
2017-09-19T03:34:38.847Z,39.47
2017-09-19T03:37:07.150Z,37.73
2017-09-19T03:39:36.943Z,35.70
2017-09-19T03:42:05.282Z,37.30
2017-09-19T03:44:33.570Z,39.23
2017-09-19T03:47:01.859Z,36.60
2017-09-19T03:49:31.352Z,36.00
2017-09-19T03:52:00.995Z,36.30
2017-09-19T03:54:29.571Z,40.93
2017-09-19T03:56:57.927Z,36.93
2017-09-19T03:59:26.603Z,37.67
2017-09-19T04:01:54.892Z,39.70
2017-09-19T04:04:24.383Z,39.20
2017-09-19T04:06:52.662Z,40.20
2017-09-19T04:09:21.718Z,38.93
2017-09-19T04:11:51.244Z,35.63
2017-09-19T04:14:19.531Z,38.77
2017-09-19T04:16:47.818Z,39.60
2017-09-19T04:19:16.165Z,41.93
2017-09-19T04:21:44.859Z,40.87
2017-09-19T04:24:13.179Z,44.30
2017-09-19T04:26:41.595Z,43.50
2017-09-19T04:29:09.904Z,43.70
2017-09-19T04:31:38.195Z,38.93
2017-09-19T04:34:07.432Z,38.10
2017-09-19T04:36:36.492Z,39.67
2017-09-19T04:39:04.781Z,36.53
2017-09-19T04:41:34.623Z,38.77
2017-09-19T04:44:02.910Z,35.20
2017-09-19T04:46:32.340Z,37.30
2017-09-19T04:49:00.703Z,36.23
2017-09-19T04:51:29.015Z,36.43
2017-09-19T04:53:57.298Z,38.50
2017-09-19T04:56:26.779Z,36.10
2017-09-19T04:58:55.458Z,36.63
2017-09-19T05:01:26.311Z,37.57
2017-09-19T05:03:56.158Z,36.37
2017-09-19T05:06:25.212Z,35.50
2017-09-19T05:08:53.494Z,35.90
2017-09-19T05:11:21.850Z,39.07
2017-09-19T05:13:50.200Z,35.97
2017-09-19T05:16:19.252Z,37.07
2017-09-19T05:18:48.372Z,36.27
2017-09-19T05:21:17.795Z,36.40
2017-09-19T05:23:46.847Z,37.30
2017-09-19T05:26:15.221Z,35.53
2017-09-19T05:28:45.028Z,34.03
2017-09-19T05:31:14.096Z,37.27
2017-09-19T05:33:42.853Z,35.20
2017-09-19T05:36:11.143Z,35.20
2017-09-19T05:38:40.576Z,33.87
2017-09-19T05:41:09.684Z,36.60
2017-09-19T05:43:38.760Z,36.50
2017-09-19T05:46:07.050Z,32.00
2017-09-19T05:48:36.156Z,33.03
2017-09-19T05:51:04.830Z,33.83
2017-09-19T05:53:33.118Z,35.77
2017-09-19T05:56:01.460Z,34.70
2017-09-19T05:58:29.758Z,34.57
2017-09-19T06:00:58.046Z,35.73
2017-09-19T06:03:26.387Z,32.50
2017-09-19T06:05:54.680Z,34.27
2017-09-19T06:08:24.096Z,32.67
2017-09-19T06:10:52.440Z,34.43
2017-09-19T06:13:22.090Z,30.87
2017-09-19T06:15:51.383Z,33.20
2017-09-19T06:18:21.248Z,32.20
2017-09-19T06:20:49.535Z,34.93
2017-09-19T06:23:19.331Z,33.87
2017-09-19T06:25:47.678Z,31.43
2017-09-19T06:28:16.735Z,34.20
2017-09-19T06:30:45.042Z,31.57
2017-09-19T06:33:13.382Z,28.73
2017-09-19T06:35:41.671Z,31.57
2017-09-19T06:38:11.487Z,31.10
2017-09-19T06:40:41.334Z,29.70
2017-09-19T06:43:09.624Z,29.30
2017-09-19T06:45:37.934Z,31.30
2017-09-19T06:48:06.660Z,27.70
2017-09-19T06:50:36.446Z,27.13
2017-09-19T06:53:04.731Z,30.87
2017-09-19T06:55:33.083Z,29.30
2017-09-19T06:58:02.714Z,26.60
2017-09-19T07:00:32.011Z,27.60
2017-09-19T07:03:01.131Z,27.20
2017-09-19T07:05:29.425Z,28.00
2017-09-19T07:07:58.474Z,28.30
2017-09-19T07:10:27.962Z,30.07
2017-09-19T07:12:56.645Z,27.93
2017-09-19T07:15:24.932Z,31.47
2017-09-19T07:17:54.827Z,28.30
2017-09-19T07:20:23.888Z,28.70
2017-09-19T07:22:53.683Z,30.30
2017-09-19T07:25:22.020Z,30.70
2017-09-19T07:27:51.449Z,34.00
2017-09-19T07:30:20.504Z,34.47
2017-09-19T07:32:48.855Z,34.20
2017-09-19T07:35:18.279Z,35.90
2017-09-19T07:37:47.918Z,34.33
2017-09-19T07:40:16.536Z,32.67
2017-09-19T07:42:44.827Z,32.40
2017-09-19T07:45:13.136Z,33.87
2017-09-19T07:47:41.484Z,32.33
2017-09-19T07:50:10.559Z,33.17
2017-09-19T07:52:38.864Z,32.67
2017-09-19T07:55:07.193Z,33.17
2017-09-19T07:57:36.612Z,34.30
2017-09-19T08:00:04.923Z,33.20
2017-09-19T08:02:33.280Z,34.03
2017-09-19T08:05:03.070Z,33.03
2017-09-19T08:07:31.363Z,35.37
2017-09-19T08:09:59.719Z,34.53
2017-09-19T08:12:28.014Z,33.40
2017-09-19T08:14:56.300Z,34.57
2017-09-19T08:17:26.139Z,31.50
2017-09-19T08:19:55.779Z,30.13
2017-09-19T08:22:25.295Z,32.70
2017-09-19T08:24:53.922Z,34.80
2017-09-19T08:27:22.207Z,34.60
2017-09-19T08:29:51.636Z,35.80
2017-09-19T08:32:20.362Z,35.60
2017-09-19T08:34:50.013Z,37.83
2017-09-19T08:37:18.567Z,36.10
2017-09-19T08:39:46.924Z,35.23
2017-09-19T08:42:15.236Z,35.13
2017-09-19T08:44:43.531Z,33.53
2017-09-19T08:47:11.896Z,32.90
2017-09-19T08:49:40.963Z,30.20
2017-09-19T08:52:10.020Z,33.40
2017-09-19T08:54:38.376Z,33.80
2017-09-19T08:57:07.803Z,32.60
2017-09-19T08:59:36.087Z,33.30
2017-09-19T09:02:04.419Z,31.60
2017-09-19T09:04:34.058Z,28.27
2017-09-19T09:07:03.355Z,28.23
2017-09-19T09:09:32.112Z,23.40
2017-09-19T09:12:01.899Z,23.50
2017-09-19T09:14:30.201Z,21.17
2017-09-19T09:16:58.559Z,19.90
2017-09-19T09:19:26.851Z,21.50
2017-09-19T09:21:56.646Z,22.03
2017-09-19T09:24:26.487Z,21.97
2017-09-19T09:26:54.771Z,20.90
2017-09-19T09:29:23.054Z,21.10
2017-09-19T09:31:51.419Z,18.70
2017-09-19T09:34:19.698Z,19.43
2017-09-19T09:36:47.992Z,18.87
2017-09-19T09:39:16.351Z,17.27
2017-09-19T09:41:46.163Z,17.10
2017-09-19T09:44:15.839Z,18.53
2017-09-19T09:46:44.452Z,15.70
2017-09-19T09:49:12.747Z,15.43
2017-09-19T09:51:41.937Z,15.27
2017-09-19T09:54:11.758Z,16.80
2017-09-19T09:56:40.064Z,15.30
2017-09-19T09:59:08.384Z,14.53
2017-09-19T10:01:36.727Z,14.90
2017-09-19T10:04:05.015Z,17.17
2017-09-19T10:06:33.332Z,17.77
2017-09-19T10:09:02.424Z,15.80
2017-09-19T10:11:30.737Z,15.17
2017-09-19T10:13:59.058Z,16.13
2017-09-19T10:16:27.416Z,18.20
2017-09-19T10:18:55.699Z,17.97
2017-09-19T10:21:23.986Z,16.80
2017-09-19T10:23:52.713Z,19.03
2017-09-19T10:26:22.512Z,18.90
2017-09-19T10:28:51.568Z,18.03
2017-09-19T10:31:20.687Z,16.60
2017-09-19T10:33:49.738Z,16.70
2017-09-19T10:36:19.374Z,14.70
2017-09-19T10:38:48.934Z,16.43
2017-09-19T10:41:17.863Z,15.53
2017-09-19T10:43:46.815Z,15.50
2017-09-19T10:46:15.148Z,17.13
2017-09-19T10:48:43.440Z,19.77
2017-09-19T10:51:12.500Z,19.87
2017-09-19T10:53:40.853Z,19.47
2017-09-19T10:56:09.134Z,20.30
2017-09-19T10:58:37.436Z,20.83
2017-09-19T11:01:05.759Z,19.23
2017-09-19T11:03:34.046Z,18.70
2017-09-19T11:06:03.843Z,19.37
2017-09-19T11:08:32.959Z,18.83
2017-09-19T11:11:01.650Z,19.87
2017-09-19T11:13:30.723Z,18.77
2017-09-19T11:15:59.835Z,17.47
2017-09-19T11:18:28.122Z,16.07
2017-09-19T11:20:56.407Z,16.13
2017-09-19T11:23:25.515Z,14.97
2017-09-19T11:25:54.208Z,15.63
2017-09-19T11:28:22.504Z,14.37
2017-09-19T11:30:50.850Z,13.03
2017-09-19T11:33:19.140Z,12.90
2017-09-19T11:35:47.439Z,13.20
2017-09-19T11:38:16.928Z,11.70
2017-09-19T11:40:45.218Z,11.80
2017-09-19T11:43:13.549Z,12.30
2017-09-19T11:45:41.915Z,11.30
2017-09-19T11:48:11.730Z,12.37
2017-09-19T11:50:41.161Z,11.37
2017-09-19T11:53:10.314Z,12.17
2017-09-19T11:55:39.370Z,11.73
2017-09-19T11:58:07.659Z,9.50
2017-09-19T12:00:35.999Z,10.73
2017-09-19T12:03:05.794Z,11.63
2017-09-19T12:05:34.083Z,13.37
2017-09-19T12:08:02.429Z,11.93
2017-09-19T12:10:30.731Z,12.23
2017-09-19T12:12:59.032Z,13.57
2017-09-19T12:15:28.518Z,14.40
2017-09-19T12:17:56.799Z,13.80
2017-09-19T12:20:25.916Z,15.17
2017-09-19T12:22:55.875Z,12.83
2017-09-19T12:25:25.391Z,16.07
2017-09-19T12:27:53.556Z,14.90
2017-09-19T12:30:21.906Z,14.43
2017-09-19T12:32:50.963Z,13.23
2017-09-19T12:35:19.256Z,12.77
2017-09-19T12:37:50.199Z,12.20
2017-09-19T12:40:19.830Z,12.20
2017-09-19T12:42:49.508Z,10.87
2017-09-19T12:45:19.195Z,12.63
2017-09-19T12:47:47.367Z,14.17
2017-09-19T12:50:16.070Z,13.83
2017-09-19T12:52:44.430Z,16.87
2017-09-19T12:55:12.728Z,16.77
2017-09-19T12:57:41.040Z,15.50
2017-09-19T13:00:10.540Z,17.30
2017-09-19T13:02:38.839Z,15.40
2017-09-19T13:05:07.526Z,16.90
2017-09-19T13:07:37.388Z,16.93
2017-09-19T13:10:05.684Z,19.10
2017-09-19T13:12:34.743Z,19.37
2017-09-19T13:15:03.071Z,19.70
2017-09-19T13:17:32.127Z,18.50
2017-09-19T13:20:01.187Z,21.50
2017-09-19T13:22:30.293Z,19.87
2017-09-19T13:24:59.377Z,19.93
2017-09-19T13:27:27.667Z,20.93
2017-09-19T13:29:56.002Z,18.57
2017-09-19T13:32:36.066Z,16.73
2017-09-19T13:35:04.390Z,17.77
2017-09-19T13:37:32.687Z,17.40
2017-09-19T13:40:00.981Z,17.07
2017-09-19T13:42:30.466Z,15.80
2017-09-19T13:44:58.763Z,14.10
2017-09-19T13:47:27.054Z,15.00
2017-09-19T13:49:55.389Z,14.47
2017-09-19T13:52:24.452Z,15.17
2017-09-19T13:54:53.510Z,14.73
2017-09-19T13:57:21.838Z,12.47
2017-09-19T13:59:50.890Z,12.77
2017-09-19T14:02:19.183Z,12.03
2017-09-19T14:04:48.886Z,11.77
2017-09-19T14:07:17.447Z,12.60
2017-09-19T14:09:45.748Z,12.70
2017-09-19T14:12:15.754Z,13.50
2017-09-19T14:14:44.069Z,11.30
2017-09-19T14:17:12.366Z,12.90
2017-09-19T14:19:40.739Z,12.50
2017-09-19T14:22:09.035Z,12.60
2017-09-19T14:24:38.661Z,14.50
2017-09-19T14:27:06.911Z,13.60
2017-09-19T14:29:35.195Z,12.97
2017-09-19T14:32:04.986Z,12.97
2017-09-19T14:34:33.311Z,13.03
2017-09-19T14:37:01.607Z,16.10
2017-09-19T14:39:29.920Z,15.27
2017-09-19T14:41:59.052Z,15.20
2017-09-19T14:44:27.330Z,15.97
2017-09-19T14:46:57.139Z,16.23
2017-09-19T14:49:25.475Z,16.10
2017-09-19T14:51:53.759Z,16.30
2017-09-19T14:54:22.043Z,16.03
2017-09-19T14:56:51.513Z,16.77
2017-09-19T14:59:19.804Z,16.03
2017-09-19T15:01:48.092Z,17.57
2017-09-19T15:04:16.468Z,16.57
2017-09-19T15:06:44.764Z,16.27
2017-09-19T15:09:13.073Z,17.60
2017-09-19T15:11:42.763Z,17.43
2017-09-19T15:14:12.276Z,15.60
2017-09-19T15:16:41.210Z,16.97
2017-09-19T15:19:10.927Z,16.77
2017-09-19T15:21:40.475Z,17.03
2017-09-19T15:24:08.639Z,18.23
2017-09-19T15:26:37.752Z,16.43
2017-09-19T15:29:06.807Z,15.57
2017-09-19T15:31:36.443Z,15.50
2017-09-19T15:34:05.058Z,14.97
2017-09-19T15:36:33.752Z,14.40
2017-09-19T15:39:02.040Z,15.57
2017-09-19T15:41:30.417Z,13.63
2017-09-19T15:43:59.857Z,14.80
2017-09-19T15:46:29.517Z,13.87
2017-09-19T15:48:58.498Z,14.87
2017-09-19T15:51:26.788Z,14.03
2017-09-19T15:53:56.586Z,13.70
2017-09-19T15:56:26.266Z,14.13
2017-09-19T15:58:55.774Z,14.30
2017-09-19T16:01:25.282Z,14.07
2017-09-19T16:03:54.255Z,13.27
2017-09-19T16:06:22.538Z,13.73
2017-09-19T16:08:50.827Z,12.97
2017-09-19T16:11:19.155Z,13.93
2017-09-19T16:13:47.447Z,12.40
2017-09-19T16:16:15.755Z,13.70
2017-09-19T16:18:45.483Z,13.83
2017-09-19T16:21:14.052Z,12.47
2017-09-19T16:23:42.343Z,11.63
2017-09-19T16:26:11.829Z,11.63
2017-09-19T16:28:40.165Z,12.20
2017-09-19T16:31:08.460Z,13.20
2017-09-19T16:33:36.786Z,12.33
2017-09-19T16:36:05.071Z,12.23
2017-09-19T16:38:34.867Z,11.40
2017-09-19T16:41:03.203Z,12.73
2017-09-19T16:43:31.512Z,13.27
2017-09-19T16:46:00.580Z,11.73
2017-09-19T16:48:28.948Z,12.60
2017-09-19T16:50:57.235Z,11.43
2017-09-19T16:53:26.663Z,13.00
2017-09-19T16:55:55.008Z,13.40
2017-09-19T16:58:23.295Z,12.73
2017-09-19T17:00:52.433Z,13.07
2017-09-19T17:03:21.184Z,12.30
2017-09-19T17:05:49.479Z,12.93
2017-09-19T17:08:17.766Z,12.47
2017-09-19T17:10:46.173Z,13.60
2017-09-19T17:13:15.823Z,14.57
2017-09-19T17:15:44.825Z,14.10
2017-09-19T17:18:14.717Z,15.17
2017-09-19T17:20:43.003Z,13.93
2017-09-19T17:23:11.318Z,14.47
2017-09-19T17:25:41.179Z,14.63
2017-09-19T17:28:09.545Z,15.93
2017-09-19T17:30:38.598Z,15.83
2017-09-19T17:33:06.984Z,15.60
2017-09-19T17:35:36.795Z,16.27
2017-09-19T17:38:05.094Z,16.20
2017-09-19T17:40:33.426Z,14.10
2017-09-19T17:43:01.723Z,13.83
2017-09-19T17:45:31.485Z,14.93
2017-09-19T17:47:59.734Z,15.90
2017-09-19T17:50:29.385Z,13.13
2017-09-19T17:52:57.939Z,17.03
2017-09-19T17:55:26.275Z,18.20
2017-09-19T17:57:54.589Z,17.33
2017-09-19T18:00:23.223Z,17.90
2017-09-19T18:02:51.971Z,17.97
2017-09-19T18:05:20.268Z,18.13
2017-09-19T18:07:49.326Z,21.37
2017-09-19T18:10:19.255Z,17.93
2017-09-19T18:12:47.552Z,19.90
2017-09-19T18:15:16.615Z,21.37
2017-09-19T18:17:44.970Z,20.70
2017-09-19T18:20:13.294Z,21.40
2017-09-19T18:22:42.733Z,17.93
2017-09-19T18:25:11.123Z,18.43
2017-09-19T18:27:39.803Z,20.17
2017-09-19T18:30:09.458Z,21.33
2017-09-19T18:32:37.713Z,22.23
2017-09-19T18:35:06.007Z,20.10
2017-09-19T18:37:35.812Z,21.90
2017-09-19T18:40:04.703Z,20.23
2017-09-19T18:42:33.764Z,22.00
2017-09-19T18:45:02.849Z,23.27
2017-09-19T18:47:31.988Z,24.50
2017-09-19T18:50:00.273Z,21.73
2017-09-19T18:52:29.617Z,22.37
2017-09-19T18:54:58.028Z,23.53
2017-09-19T18:57:27.143Z,22.37
2017-09-19T18:59:56.584Z,21.33
2017-09-19T19:02:24.924Z,22.30
2017-09-19T19:04:54.572Z,24.63
2017-09-19T19:07:23.513Z,22.30
2017-09-19T19:09:51.906Z,25.33
2017-09-19T19:12:22.001Z,22.37
2017-09-19T19:14:50.294Z,22.47
2017-09-19T19:17:19.803Z,22.10
2017-09-19T19:19:48.140Z,23.13
2017-09-19T19:22:17.622Z,21.20
2017-09-19T19:24:47.343Z,23.93
2017-09-19T19:27:15.513Z,22.10
2017-09-19T19:29:44.040Z,21.47
2017-09-19T19:32:12.420Z,23.93
2017-09-19T19:34:41.574Z,23.97
2017-09-19T19:37:10.292Z,21.20
2017-09-19T19:39:38.738Z,21.37
2017-09-19T19:42:07.140Z,24.43
2017-09-19T19:44:36.575Z,19.93
2017-09-19T19:47:04.958Z,22.63
2017-09-19T19:49:33.256Z,24.13
2017-09-19T19:52:01.572Z,24.33
2017-09-19T19:54:29.943Z,24.73
2017-09-19T19:56:58.235Z,28.53
2017-09-19T19:59:27.376Z,26.07
2017-09-19T20:01:55.944Z,26.60
2017-09-19T20:04:24.251Z,24.10
2017-09-19T20:06:52.551Z,23.53
2017-09-19T20:09:22.408Z,23.17
2017-09-19T20:11:50.690Z,27.03
2017-09-19T20:14:20.322Z,26.03
2017-09-19T20:16:50.076Z,25.60
2017-09-19T20:19:19.722Z,25.93
2017-09-19T20:21:48.291Z,25.70
2017-09-19T20:24:16.722Z,27.00
2017-09-19T20:26:45.430Z,27.57
2017-09-19T20:29:14.572Z,26.40
2017-09-19T20:31:44.296Z,27.27
2017-09-19T20:34:12.891Z,27.50
2017-09-19T20:36:41.200Z,22.87
2017-09-19T20:39:09.581Z,25.13
2017-09-19T20:41:37.860Z,25.20
2017-09-19T20:44:08.596Z,25.83
2017-09-19T20:46:36.947Z,26.87
2017-09-19T20:49:05.255Z,30.20
2017-09-19T20:51:34.683Z,29.60
2017-09-19T20:54:04.163Z,28.70
2017-09-19T20:56:33.582Z,30.37
2017-09-19T20:59:01.900Z,32.50
2017-09-19T21:01:30.656Z,29.80
2017-09-19T21:04:05.430Z,27.07
2017-09-19T21:06:40.248Z,25.40
2017-09-19T21:09:14.208Z,26.50
2017-09-19T21:11:49.423Z,24.67
2017-09-19T21:14:24.210Z,27.40
2017-09-19T21:16:58.714Z,28.23
2017-09-19T21:19:26.503Z,27.67
2017-09-19T21:21:56.331Z,29.63
2017-09-19T21:24:25.447Z,26.50
2017-09-19T21:26:55.087Z,29.53
2017-09-19T21:29:24.010Z,29.77
2017-09-19T21:31:52.695Z,28.53
2017-09-19T21:34:21.393Z,30.20
2017-09-19T21:36:50.404Z,39.93
2017-09-19T21:39:19.506Z,41.77
2017-09-19T21:41:47.799Z,34.90
2017-09-19T21:44:18.576Z,32.43
2017-09-19T21:46:47.058Z,33.57
2017-09-19T21:49:16.154Z,33.63
2017-09-19T21:51:44.484Z,35.63
2017-09-19T21:54:12.883Z,33.10
2017-09-19T21:56:42.726Z,33.30
2017-09-19T21:59:11.051Z,34.07
2017-09-19T22:01:39.412Z,34.30
2017-09-19T22:04:07.760Z,35.13
2017-09-19T22:06:37.154Z,38.47
2017-09-19T22:09:07.067Z,37.90
2017-09-19T22:11:35.440Z,39.57
2017-09-19T22:14:04.140Z,38.73
2017-09-19T22:16:32.500Z,39.83
2017-09-19T22:19:01.584Z,36.73
2017-09-19T22:21:29.904Z,38.33
2017-09-19T22:23:58.267Z,40.50
2017-09-19T22:26:27.915Z,37.10
2017-09-19T22:28:56.091Z,38.47
2017-09-19T22:31:24.448Z,38.30
2017-09-19T22:33:52.776Z,38.90
2017-09-19T22:36:21.115Z,37.67
2017-09-19T22:38:50.855Z,38.80
2017-09-19T22:41:19.056Z,39.90
2017-09-19T22:43:48.129Z,36.70
2017-09-19T22:46:18.139Z,42.10
2017-09-19T22:48:47.207Z,38.53
2017-09-19T22:51:15.508Z,39.97
2017-09-19T22:53:43.930Z,42.47
2017-09-19T22:56:13.010Z,42.10
2017-09-19T22:58:42.083Z,42.57
2017-09-19T23:01:11.248Z,41.73
2017-09-19T23:03:39.531Z,40.90
2017-09-19T23:06:09.179Z,40.93
2017-09-19T23:08:37.432Z,42.33
2017-09-19T23:11:06.529Z,42.03
2017-09-19T23:13:34.831Z,40.07
2017-09-19T23:16:04.617Z,40.67
2017-09-19T23:18:32.936Z,39.13
2017-09-19T23:21:01.277Z,39.83
2017-09-19T23:23:29.652Z,41.87
2017-09-19T23:25:58.720Z,41.20
2017-09-19T23:28:28.373Z,39.27
2017-09-19T23:30:57.958Z,44.03
2017-09-19T23:33:26.576Z,37.53
2017-09-19T23:35:54.874Z,38.57
2017-09-19T23:38:23.265Z,41.17
2017-09-19T23:40:53.135Z,40.57
2017-09-19T23:43:21.440Z,39.67
2017-09-19T23:45:52.016Z,36.10
2017-09-19T23:48:20.338Z,40.83
2017-09-19T23:50:49.796Z,40.67
2017-09-19T23:53:18.155Z,41.60
2017-09-19T23:55:46.942Z,40.00
2017-09-19T23:58:15.785Z,39.57
